Time;durP1;ratioP1;P1;durP2;ratioP2;P2;SDS_P1;SDS_P2;PMS_P1;PMS_P2;Temp;Humidity;BMP_temperature;BMP_pressure;BME280_temperature;BME280_humidity;BME280_pressure;Samples;Min_cycle;Max_cycle;Signal;HPM_P1;HPM_P2
2024/04/06 00:01:57;;;;;;;26.45;17.08;;;14.50;77.70;;;;;;5032466;28;20060;-74
2024/04/06 00:04:23;;;;;;;28.25;17.98;;;14.30;78.60;;;;;;5015455;28;20393;-73
2024/04/06 00:06:50;;;;;;;116.85;58.13;;;14.40;78.80;;;;;;5032734;28;20436;-74
2024/04/06 00:09:16;;;;;;;112.70;62.85;;;14.40;77.90;;;;;;5015352;28;20041;-73
2024/04/06 00:12:01;;;;;;;37.58;24.58;;;14.30;79.20;;;;;;5018325;28;20046;-72
2024/04/06 00:14:27;;;;;;;27.02;16.38;;;14.20;78.70;;;;;;5032885;28;20104;-72
2024/04/06 00:16:53;;;;;;;29.48;15.73;;;14.10;78.60;;;;;;5032036;28;20033;-73
2024/04/06 00:19:20;;;;;;;24.73;15.80;;;14.20;78.40;;;;;;5032334;28;20037;-73
2024/04/06 00:21:46;;;;;;;29.17;15.02;;;14.40;78.50;;;;;;5015666;28;20053;-73
2024/04/06 00:24:12;;;;;;;28.60;15.35;;;14.40;77.90;;;;;;5015977;28;20037;-73
2024/04/06 00:26:38;;;;;;;25.60;14.65;;;14.40;77.80;;;;;;5016012;28;20049;-71
2024/04/06 00:29:05;;;;;;;22.92;13.30;;;14.50;77.10;;;;;;5015315;28;20038;-72
2024/04/06 00:31:31;;;;;;;24.92;14.25;;;14.50;75.70;;;;;;5016060;28;20033;-74
2024/04/06 00:34:01;;;;;;;28.75;15.15;;;14.50;75.70;;;;;;5015070;28;20030;-71
2024/04/06 00:36:28;;;;;;;;;;;14.20;76.40;;;;;;5032451;28;20037;-71
2024/04/06 00:38:54;;;;;;;26.67;13.75;;;14.00;78.10;;;;;;5015831;28;19962;-72
2024/04/06 00:41:21;;;;;;;26.58;15.70;;;13.90;78.40;;;;;;5015761;28;20049;-72
2024/04/06 00:43:48;;;;;;;30.25;15.48;;;14.00;79.10;;;;;;5015423;28;20488;-71
2024/04/06 00:46:16;;;;;;;28.15;14.85;;;14.20;78.50;;;;;;5015341;28;20071;-72
2024/04/06 00:48:45;;;;;;;25.38;14.70;;;14.20;78.50;;;;;;5015289;28;20061;-73
2024/04/06 00:51:12;;;;;;;28.55;14.75;;;14.20;78.40;;;;;;5015282;28;20037;-71
2024/04/06 00:53:39;;;;;;;26.23;15.55;;;14.00;78.70;;;;;;5015678;28;20053;-74
2024/04/06 00:56:06;;;;;;;24.75;14.93;;;13.80;79.20;;;;;;5015420;28;20042;-73
2024/04/06 00:58:32;;;;;;;22.58;13.23;;;13.80;79.30;;;;;;5015643;28;20048;-72
2024/04/06 01:00:59;;;;;;;17.05;11.18;;;13.70;79.70;;;;;;5014709;28;20037;-71
2024/04/06 01:03:26;;;;;;;22.92;11.70;;;13.50;79.70;;;;;;5030382;28;20055;-72
2024/04/06 01:05:52;;;;;;;22.20;11.73;;;13.50;79.90;;;;;;5015138;28;20487;-72
2024/04/06 01:08:18;;;;;;;18.77;10.93;;;13.60;79.00;;;;;;5015231;28;20037;-75
2024/04/06 01:10:46;;;;;;;15.63;10.15;;;13.40;79.60;;;;;;5031412;28;20037;-73
2024/04/06 01:13:12;;;;;;;18.42;9.98;;;13.50;79.10;;;;;;5031502;28;20420;-73
2024/04/06 01:15:39;;;;;;;19.20;10.35;;;13.50;78.70;;;;;;5014822;28;20362;-72
2024/04/06 01:18:05;;;;;;;17.50;10.13;;;13.60;78.40;;;;;;4999072;28;20052;-73
2024/04/06 01:20:34;;;;;;;17.25;10.00;;;13.70;78.20;;;;;;4993621;28;20124;-73
2024/04/06 01:23:00;;;;;;;18.48;9.88;;;13.70;78.10;;;;;;4995281;28;20087;-74
2024/04/06 01:25:26;;;;;;;16.92;9.20;;;13.70;78.30;;;;;;4999507;28;20099;-74
2024/04/06 01:27:53;;;;;;;15.95;9.32;;;13.60;78.30;;;;;;5030980;28;20388;-71
2024/04/06 01:30:19;;;;;;;16.85;10.35;;;13.50;78.80;;;;;;4998912;28;20096;-75
2024/04/06 01:32:50;;;;;;;14.80;9.43;;;13.40;79.50;;;;;;5030654;28;20029;-74
2024/04/06 01:35:16;;;;;;;19.50;9.15;;;13.20;79.70;;;;;;5014941;28;20033;-73
2024/04/06 01:37:44;;;;;;;12.32;8.48;;;13.10;80.40;;;;;;4998567;28;20057;-73
2024/04/06 01:40:11;;;;;;;12.07;7.65;;;13.20;80.30;;;;;;4998859;28;20415;-72
2024/04/06 01:42:39;;;;;;;16.60;8.57;;;13.10;80.10;;;;;;5030778;28;20052;-74
2024/04/06 01:45:05;;;;;;;15.93;9.45;;;13.10;80.40;;;;;;5014622;28;20052;-73
2024/04/06 01:47:33;;;;;;;16.50;10.05;;;13.20;80.50;;;;;;5031255;28;20132;-74
2024/04/06 01:50:05;;;;;;;18.40;9.77;;;12.80;81.90;;;;;;5014482;28;20037;-74
2024/04/06 01:52:32;;;;;;;16.60;9.68;;;13.00;82.00;;;;;;4995191;28;20054;-74
2024/04/06 01:55:03;;;;;;;14.43;9.35;;;13.30;80.80;;;;;;5030822;28;20034;-73
2024/04/06 01:57:31;;;;;;;17.25;8.82;;;13.40;80.40;;;;;;5014406;28;20076;-71
2024/04/06 01:59:58;;;;;;;17.13;9.10;;;13.40;79.50;;;;;;4998445;28;20041;-72
2024/04/06 02:02:24;;;;;;;16.17;8.73;;;13.40;79.60;;;;;;5013618;28;20071;-74
2024/04/06 02:04:50;;;;;;;14.32;8.77;;;13.30;79.70;;;;;;5014208;28;20043;-72
2024/04/06 02:07:17;;;;;;;14.32;9.32;;;13.50;80.00;;;;;;5014095;28;20042;-75
2024/04/06 02:09:44;;;;;;;15.65;8.38;;;13.60;79.50;;;;;;4997847;28;20507;-73
2024/04/06 02:12:10;;;;;;;12.35;8.65;;;13.60;78.60;;;;;;5013053;28;20087;-74
2024/04/06 02:14:37;;;;;;;15.25;8.57;;;13.70;79.10;;;;;;4994861;28;20113;-75
2024/04/06 02:17:03;;;;;;;16.65;9.55;;;13.50;79.40;;;;;;5027310;28;20041;-75
2024/04/06 02:19:30;;;;;;;17.65;8.45;;;13.50;79.50;;;;;;4998002;28;20041;-76
2024/04/06 02:21:57;;;;;;;10.27;7.75;;;13.40;79.30;;;;;;5030202;28;20428;-74
2024/04/06 02:24:24;;;;;;;14.27;7.60;;;13.50;79.40;;;;;;4997392;28;20066;-77
2024/04/06 02:26:51;;;;;;;10.88;7.68;;;13.30;79.60;;;;;;5014157;28;20037;-75
2024/04/06 02:29:18;;;;;;;16.15;7.00;;;13.00;80.00;;;;;;5013512;28;20412;-71
2024/04/06 02:31:45;;;;;;;8.85;6.85;;;13.20;80.10;;;;;;5014485;28;20368;-76
2024/04/06 02:34:11;;;;;;;9.18;6.65;;;13.20;80.00;;;;;;5014172;28;20041;-77
2024/04/06 02:36:38;;;;;;;12.00;6.85;;;13.30;79.90;;;;;;4996613;28;20034;-75
2024/04/06 02:39:09;;;;;;;11.23;6.82;;;13.10;80.10;;;;;;5014089;28;20366;-73
2024/04/06 02:41:36;;;;;;;10.30;6.80;;;13.00;80.50;;;;;;4997381;28;20057;-75
2024/04/06 02:44:03;;;;;;;11.13;6.55;;;13.10;80.40;;;;;;5004667;28;20034;-75
2024/04/06 02:46:29;;;;;;;8.43;6.43;;;13.10;80.50;;;;;;5026893;28;20033;-75
2024/04/06 02:48:55;;;;;;;9.63;7.55;;;13.00;80.90;;;;;;4993674;28;20104;-74
2024/04/06 02:51:24;;;;;;;12.23;7.32;;;12.90;81.20;;;;;;5010806;28;20021;-73
2024/04/06 02:53:51;;;;;;;9.55;6.53;;;12.60;82.00;;;;;;5030199;28;20034;-72
2024/04/06 02:56:17;;;;;;;12.02;7.20;;;12.70;82.30;;;;;;5012892;28;20045;-74
2024/04/06 02:58:43;;;;;;;10.95;7.50;;;12.80;82.00;;;;;;4993740;28;20095;-71
2024/04/06 03:01:10;;;;;;;16.23;7.22;;;12.40;82.70;;;;;;5025076;28;20029;-76
2024/04/06 03:03:36;;;;;;;12.10;7.05;;;12.50;82.70;;;;;;5026714;28;20042;-70
2024/04/06 03:06:02;;;;;;;11.05;6.60;;;12.60;83.00;;;;;;5012340;28;20489;-71
2024/04/06 03:08:29;;;;;;;15.90;7.18;;;12.50;82.70;;;;;;4994215;28;20050;-74
2024/04/06 03:10:56;;;;;;;11.75;7.03;;;12.40;83.50;;;;;;5029457;28;20362;-74
2024/04/06 03:13:22;;;;;;;10.13;7.03;;;12.60;83.60;;;;;;5029978;28;20378;-76
2024/04/06 03:15:48;;;;;;;9.18;6.22;;;12.50;82.80;;;;;;4997234;28;20064;-75
2024/04/06 03:18:15;;;;;;;9.82;6.90;;;12.20;84.20;;;;;;4997259;28;20041;-74
2024/04/06 03:20:41;;;;;;;13.50;6.60;;;12.40;83.80;;;;;;5007709;28;20057;-74
2024/04/06 03:23:08;;;;;;;9.68;6.72;;;12.50;83.10;;;;;;5029258;28;20034;-75
2024/04/06 03:25:35;;;;;;;9.40;7.00;;;12.70;82.20;;;;;;5018208;28;20045;-77
2024/04/06 03:28:01;;;;;;;11.02;7.15;;;12.50;82.00;;;;;;5016938;28;20079;-72
2024/04/06 03:30:28;;;;;;;8.90;6.28;;;12.40;82.70;;;;;;5018639;28;20107;-72
2024/04/06 03:32:55;;;;;;;10.50;6.93;;;12.50;82.50;;;;;;5034367;28;20034;-70
2024/04/06 03:35:21;;;;;;;11.32;6.68;;;12.40;82.60;;;;;;5033906;28;20033;-76
2024/04/06 03:37:49;;;;;;;8.25;6.35;;;12.20;82.80;;;;;;5017380;28;20587;-71
2024/04/06 03:40:16;;;;;;;11.13;6.30;;;12.30;82.60;;;;;;5003796;28;20116;-77
2024/04/06 03:43:00;;;;;;;8.57;6.45;;;12.30;82.00;;;;;;5033780;28;20421;-76
2024/04/06 03:45:26;;;;;;;13.15;6.95;;;12.30;81.90;;;;;;4989544;28;20041;-76
2024/04/06 03:47:53;;;;;;;8.35;6.28;;;12.20;82.70;;;;;;5000686;28;20044;-73
2024/04/06 03:50:22;;;;;;;12.25;7.25;;;12.20;83.00;;;;;;5017395;28;20447;-77
2024/04/06 03:52:49;;;;;;;10.90;7.07;;;12.20;83.20;;;;;;5000923;28;20432;-76
2024/04/06 03:55:15;;;;;;;13.25;6.75;;;12.30;83.10;;;;;;5034146;28;20034;-73
2024/04/06 03:57:42;;;;;;;11.52;6.72;;;12.30;83.20;;;;;;5000463;28;20041;-73
2024/04/06 04:00:09;;;;;;;9.77;6.68;;;12.30;83.30;;;;;;5001830;28;20048;-76
2024/04/06 04:02:37;;;;;;;9.23;6.57;;;12.20;82.70;;;;;;5001024;28;20041;-77
2024/04/06 04:05:04;;;;;;;15.88;7.20;;;12.10;83.70;;;;;;5001086;28;20384;-74
2024/04/06 04:07:35;;;;;;;11.45;8.05;;;11.80;84.80;;;;;;5015722;28;20052;-76
2024/04/06 04:10:03;;;;;;;17.13;7.50;;;11.70;85.60;;;;;;5017091;28;20036;-77
2024/04/06 04:12:31;;;;;;;11.38;7.60;;;11.70;85.70;;;;;;4984440;28;20057;-75
2024/04/06 04:15:04;;;;;;;11.60;7.43;;;11.90;85.30;;;;;;5010631;28;20038;-73
2024/04/06 04:17:32;;;;;;;10.73;7.25;;;11.90;85.00;;;;;;5017322;28;20060;-74
2024/04/06 04:19:59;;;;;;;13.30;7.20;;;12.00;84.70;;;;;;5032222;28;20045;-76
2024/04/06 04:22:26;;;;;;;8.63;6.80;;;12.00;84.90;;;;;;5016839;28;20114;-76
2024/04/06 04:24:53;;;;;;;10.85;7.22;;;11.90;84.60;;;;;;5000068;28;20037;-73
2024/04/06 04:27:19;;;;;;;8.95;6.85;;;11.90;85.10;;;;;;5033165;28;20373;-75
2024/04/06 04:29:45;;;;;;;9.93;6.93;;;12.00;84.50;;;;;;5000252;28;20087;-72
2024/04/06 04:32:13;;;;;;;9.88;6.95;;;12.10;84.00;;;;;;4995300;28;20050;-70
2024/04/06 04:34:39;;;;;;;9.27;6.63;;;12.10;83.70;;;;;;4991614;28;20067;-73
2024/04/06 04:37:05;;;;;;;9.90;6.90;;;12.30;83.60;;;;;;4999931;28;20041;-75
2024/04/06 04:39:32;;;;;;;11.88;7.40;;;12.30;83.30;;;;;;5032228;28;20476;-76
2024/04/06 04:41:58;;;;;;;9.85;6.53;;;12.30;82.40;;;;;;5032492;28;20388;-74
2024/04/06 04:44:25;;;;;;;14.82;6.85;;;12.40;82.80;;;;;;5033009;28;20029;-72
2024/04/06 04:46:51;;;;;;;12.57;6.60;;;12.50;82.20;;;;;;5015940;28;20559;-74
2024/04/06 04:49:17;;;;;;;11.15;6.80;;;12.30;83.00;;;;;;5015753;28;20555;-75
2024/04/06 04:51:44;;;;;;;11.30;6.63;;;12.30;83.30;;;;;;4993046;28;20038;-76
2024/04/06 04:54:28;;;;;;;10.95;6.88;;;12.40;82.80;;;;;;5029030;28;20026;-74
2024/04/06 04:56:54;;;;;;;9.95;7.22;;;12.40;82.10;;;;;;5015373;28;20037;-72
2024/04/06 04:59:21;;;;;;;9.05;6.55;;;12.40;81.90;;;;;;4999325;28;20032;-74
2024/04/06 05:01:47;;;;;;;9.45;6.35;;;12.50;81.60;;;;;;5015650;28;20049;-78
2024/04/06 05:04:14;;;;;;;13.07;6.38;;;12.50;81.30;;;;;;5015768;28;20063;-75
2024/04/06 05:06:40;;;;;;;11.30;6.47;;;12.30;80.80;;;;;;5015487;28;20049;-73
2024/04/06 05:09:07;;;;;;;11.43;6.15;;;12.30;81.20;;;;;;5014844;28;20030;-75
2024/04/06 05:11:34;;;;;;;10.95;6.57;;;12.30;81.40;;;;;;5015278;28;20388;-75
2024/04/06 05:14:00;;;;;;;11.15;6.70;;;12.10;80.60;;;;;;5015299;28;20037;-73
2024/04/06 05:16:27;;;;;;;9.90;6.68;;;11.80;82.20;;;;;;4999506;28;20034;-74
2024/04/06 05:18:53;;;;;;;12.85;6.43;;;12.00;81.60;;;;;;4983271;28;20029;-74
2024/04/06 05:21:19;;;;;;;9.55;6.68;;;12.20;82.20;;;;;;5023651;28;20042;-76
2024/04/06 05:23:46;;;;;;;8.93;7.25;;;12.20;81.60;;;;;;4998626;28;20045;-75
2024/04/06 05:26:12;;;;;;;9.60;6.72;;;12.30;81.60;;;;;;4989945;28;20115;-72
2024/04/06 05:28:38;;;;;;;10.85;6.45;;;12.50;81.70;;;;;;5015004;28;20033;-72
2024/04/06 05:31:05;;;;;;;10.73;7.35;;;12.70;81.40;;;;;;4998656;28;20083;-74
2024/04/06 05:33:31;;;;;;;11.25;7.53;;;12.80;81.30;;;;;;5013741;28;20050;-79
2024/04/06 05:35:57;;;;;;;13.38;7.05;;;13.00;81.30;;;;;;4999880;28;20370;-75
2024/04/06 05:38:24;;;;;;;12.68;7.40;;;12.60;81.50;;;;;;5014400;28;20763;-76
2024/04/06 05:40:52;;;;;;;9.60;6.50;;;12.80;82.20;;;;;;5015553;28;20029;-74
2024/04/06 05:43:19;;;;;;;10.18;7.43;;;13.00;81.10;;;;;;5014376;28;20053;-76
2024/04/06 05:45:45;;;;;;;10.27;6.53;;;12.90;81.20;;;;;;5031044;28;20038;-71
2024/04/06 05:48:11;;;;;;;9.90;7.00;;;13.00;80.90;;;;;;5029594;28;20127;-73
2024/04/06 05:50:44;;;;;;;9.60;6.82;;;13.00;80.70;;;;;;5029529;28;20056;-75
2024/04/06 05:53:11;;;;;;;9.52;6.30;;;13.00;80.40;;;;;;4997587;28;20042;-74
2024/04/06 05:55:37;;;;;;;11.23;6.40;;;12.90;80.40;;;;;;4999192;28;20044;-74
2024/04/06 05:58:05;;;;;;;8.32;6.47;;;12.80;80.50;;;;;;5014602;28;20079;-73
2024/04/06 06:00:32;;;;;;;10.82;5.85;;;12.90;81.10;;;;;;4998619;28;20424;-76
2024/04/06 06:02:59;;;;;;;13.10;6.35;;;12.80;81.10;;;;;;4989157;28;20103;-76
2024/04/06 06:05:25;;;;;;;11.98;6.25;;;13.00;80.60;;;;;;4997314;28;20504;-77
2024/04/06 06:07:52;;;;;;;10.18;6.50;;;13.20;79.60;;;;;;5014627;28;20435;-77
2024/04/06 06:10:18;;;;;;;10.60;6.30;;;13.40;78.90;;;;;;4998363;28;20037;-77
2024/04/06 06:12:45;;;;;;;9.63;6.13;;;13.40;78.90;;;;;;4997500;28;20053;-76
2024/04/06 06:15:11;;;;;;;12.80;5.85;;;13.70;78.00;;;;;;5014998;28;20485;-74
2024/04/06 06:17:38;;;;;;;12.02;6.10;;;13.70;77.50;;;;;;5030505;28;20045;-76
2024/04/06 06:20:05;;;;;;;10.25;6.18;;;13.80;77.30;;;;;;4997976;28;20504;-73
2024/04/06 06:22:32;;;;;;;9.75;6.65;;;13.90;77.60;;;;;;5006523;28;20037;-75
2024/04/06 06:24:59;;;;;;;7.30;5.80;;;14.00;77.70;;;;;;4996333;28;20420;-73
2024/04/06 06:27:28;;;;;;;9.02;5.80;;;14.20;77.50;;;;;;4998737;28;21524;-73
2024/04/06 06:29:56;;;;;;;10.57;6.38;;;14.30;76.80;;;;;;5014063;28;20034;-76
2024/04/06 06:32:23;;;;;;;8.18;5.97;;;14.30;76.60;;;;;;5025580;28;20041;-71
2024/04/06 06:34:50;;;;;;;11.25;6.30;;;14.40;76.80;;;;;;4994335;28;20049;-73
2024/04/06 06:37:16;;;;;;;8.23;6.10;;;14.50;76.70;;;;;;5013535;28;20099;-71
2024/04/06 06:39:42;;;;;;;11.85;6.97;;;14.60;76.80;;;;;;5013265;28;20112;-77
2024/04/06 06:42:11;;;;;;;12.82;7.05;;;14.50;77.00;;;;;;5014289;28;20044;-76
2024/04/06 06:44:40;;;;;;;12.27;7.57;;;14.70;77.50;;;;;;4997970;28;20041;-74
2024/04/06 06:47:07;;;;;;;11.20;6.93;;;14.80;77.80;;;;;;5007308;28;20038;-73
2024/04/06 06:49:33;;;;;;;10.50;6.90;;;14.70;77.60;;;;;;4993132;28;20482;-76
2024/04/06 06:52:00;;;;;;;41.33;24.98;;;14.90;78.00;;;;;;5013302;28;20090;-75
2024/04/06 06:54:27;;;;;;;19.02;10.68;;;15.30;77.30;;;;;;4998169;28;20393;-74
2024/04/06 06:56:54;;;;;;;26.83;15.52;;;15.30;76.50;;;;;;4997421;28;20053;-75
2024/04/06 06:59:20;;;;;;;21.08;10.98;;;15.40;75.50;;;;;;5013088;28;20888;-75
2024/04/06 07:01:47;;;;;;;36.83;24.50;;;15.40;75.80;;;;;;4995045;28;20038;-75
2024/04/06 07:04:15;;;;;;;39.60;25.13;;;15.50;75.20;;;;;;5012646;28;20041;-76
2024/04/06 07:06:42;;;;;;;17.33;11.43;;;15.70;75.80;;;;;;5028408;28;20447;-73
2024/04/06 07:09:09;;;;;;;17.52;7.30;;;15.70;74.30;;;;;;5012804;28;20439;-70
2024/04/06 07:11:35;;;;;;;14.13;6.40;;;15.60;73.90;;;;;;5028783;28;20050;-71
2024/04/06 07:14:02;;;;;;;11.15;6.50;;;15.60;73.60;;;;;;5011388;28;20042;-73
2024/04/06 07:16:28;;;;;;;10.77;6.30;;;15.60;73.50;;;;;;4993094;28;20029;-72
2024/04/06 07:18:55;;;;;;;11.98;7.00;;;15.60;73.50;;;;;;5009382;28;20049;-73
2024/04/06 07:21:22;;;;;;;11.75;6.93;;;15.50;73.50;;;;;;5029206;28;20025;-71
2024/04/06 07:23:48;;;;;;;10.98;7.15;;;15.40;74.00;;;;;;5029686;28;20045;-72
2024/04/06 07:26:14;;;;;;;11.77;6.97;;;15.50;74.80;;;;;;5027243;28;20038;-73
2024/04/06 07:28:42;;;;;;;12.68;6.68;;;15.60;74.20;;;;;;4993468;28;20440;-74
2024/04/06 07:31:10;;;;;;;9.95;6.53;;;15.70;74.00;;;;;;4991365;28;20033;-72
2024/04/06 07:33:37;;;;;;;11.50;6.43;;;15.90;73.50;;;;;;5012240;28;20038;-75
2024/04/06 07:36:04;;;;;;;10.93;6.32;;;16.00;73.30;;;;;;4991918;28;20042;-72
2024/04/06 07:38:30;;;;;;;9.65;5.82;;;15.90;72.80;;;;;;5009968;28;20045;-72
2024/04/06 07:40:58;;;;;;;11.95;5.90;;;15.90;73.00;;;;;;5009056;28;20030;-73
2024/04/06 07:43:25;;;;;;;9.65;5.95;;;16.00;72.60;;;;;;4996880;28;20041;-73
2024/04/06 07:45:51;;;;;;;9.15;5.50;;;16.00;72.40;;;;;;4996706;28;20045;-71
2024/04/06 07:48:19;;;;;;;8.77;6.13;;;16.00;72.90;;;;;;4996895;28;20040;-71
2024/04/06 07:50:45;;;;;;;7.97;5.15;;;16.10;72.70;;;;;;4996858;28;20072;-75
2024/04/06 07:53:12;;;;;;;12.15;5.35;;;16.20;73.60;;;;;;5012375;28;20466;-74
2024/04/06 07:55:39;;;;;;;12.40;5.68;;;16.40;73.10;;;;;;4997430;28;20417;-74
2024/04/06 07:58:06;;;;;;;13.68;5.95;;;16.50;72.30;;;;;;4997041;28;20041;-77
2024/04/06 08:00:38;;;;;;;8.63;5.35;;;16.50;72.10;;;;;;4994228;28;20046;-74
2024/04/06 08:03:05;;;;;;;9.98;5.03;;;16.60;70.70;;;;;;4995516;28;20369;-77
2024/04/06 08:05:31;;;;;;;11.32;4.90;;;16.40;70.80;;;;;;4996481;28;20389;-77
2024/04/06 08:07:59;;;;;;;11.25;5.60;;;16.60;70.90;;;;;;4998299;28;20389;-79
2024/04/06 08:10:26;;;;;;;12.10;5.10;;;16.70;70.70;;;;;;5015022;28;20686;-73
2024/04/06 08:12:55;;;;;;;10.20;5.32;;;16.90;70.80;;;;;;5015820;28;20209;-71
2024/04/06 08:15:22;;;;;;;7.97;5.70;;;17.30;70.50;;;;;;5032205;28;20029;-72
2024/04/06 08:17:48;;;;;;;48.50;29.42;;;17.60;70.10;;;;;;5016601;28;20090;-71
2024/04/06 08:20:16;;;;;;;119.63;74.90;;;17.60;69.40;;;;;;4999907;28;20041;-69
2024/04/06 08:22:43;;;;;;;18.98;13.05;;;17.70;68.70;;;;;;5012770;28;20037;-72
2024/04/06 08:25:11;;;;;;;9.00;6.38;;;17.90;67.50;;;;;;5015983;28;20128;-69
2024/04/06 08:27:38;;;;;;;10.63;6.35;;;18.00;67.20;;;;;;4999047;28;20472;-70
2024/04/06 08:30:06;;;;;;;8.98;5.05;;;18.30;67.20;;;;;;5015660;28;20037;-70
2024/04/06 08:32:35;;;;;;;9.30;5.85;;;18.40;65.80;;;;;;5015062;28;20088;-71
2024/04/06 08:35:01;;;;;;;9.23;5.43;;;18.40;64.40;;;;;;5014950;28;20087;-72
2024/04/06 08:37:28;;;;;;;9.07;5.00;;;18.50;65.40;;;;;;5015684;28;20052;-70
2024/04/06 08:39:54;;;;;;;8.73;5.20;;;18.40;65.90;;;;;;5031694;28;20115;-69
2024/04/06 08:42:22;;;;;;;10.77;4.97;;;18.50;66.20;;;;;;5014714;28;20041;-71
2024/04/06 08:45:10;;;;;;;9.15;5.28;;;18.60;66.10;;;;;;5029746;28;20032;-70
2024/04/06 08:47:39;;;;;;;8.98;4.72;;;19.00;66.60;;;;;;5026987;28;20127;-70
2024/04/06 08:50:06;;;;;;;12.10;5.65;;;19.40;66.70;;;;;;5030901;28;20034;-71
2024/04/06 08:52:36;;;;;;;7.47;5.20;;;19.60;65.10;;;;;;5015246;28;20045;-73
2024/04/06 08:55:04;;;;;;;9.60;5.38;;;19.70;64.60;;;;;;5019876;28;20090;-70
2024/04/06 08:57:35;;;;;;;9.48;5.30;;;19.70;64.90;;;;;;5030594;28;20370;-70
2024/04/06 09:00:12;;;;;;;8.27;5.38;;;19.80;63.40;;;;;;5015063;28;20216;-72
2024/04/06 09:02:39;;;;;;;9.60;5.30;;;19.90;63.60;;;;;;5014617;28;20064;-72
2024/04/06 09:05:06;;;;;;;11.00;5.65;;;20.20;64.00;;;;;;5015115;28;20037;-70
2024/04/06 09:07:33;;;;;;;13.35;5.55;;;20.30;63.10;;;;;;5013425;28;20567;-73
2024/04/06 09:09:59;;;;;;;9.50;5.45;;;20.30;62.20;;;;;;5031628;28;20508;-71
2024/04/06 09:12:25;;;;;;;9.98;4.88;;;20.30;62.20;;;;;;5013558;28;20362;-71
2024/04/06 09:14:52;;;;;;;8.32;4.95;;;20.60;62.60;;;;;;5010296;28;20037;-71
2024/04/06 09:17:21;;;;;;;7.35;4.60;;;20.90;61.20;;;;;;5007151;28;20034;-75
2024/04/06 09:19:50;;;;;;;11.65;4.53;;;20.90;60.20;;;;;;5013198;28;20045;-77
2024/04/06 09:22:17;;;;;;;8.68;4.22;;;21.20;61.10;;;;;;4997733;28;20044;-72
2024/04/06 09:24:43;;;;;;;7.65;3.67;;;21.50;59.10;;;;;;5031213;28;20047;-76
2024/04/06 09:27:11;;;;;;;10.77;4.05;;;21.30;56.20;;;;;;5031447;28;20033;-70
2024/04/06 09:29:39;;;;;;;7.30;3.40;;;21.20;57.70;;;;;;5013828;28;20038;-73
2024/04/06 09:32:10;;;;;;;22.60;15.45;;;21.20;58.50;;;;;;5015189;28;20029;-72
2024/04/06 09:34:46;;;;;;;46.97;33.17;;;21.50;58.40;;;;;;4995810;28;20181;-73
2024/04/06 09:37:13;;;;;;;12.77;7.40;;;21.80;58.30;;;;;;5012497;28;20033;-73
2024/04/06 09:39:40;;;;;;;7.53;4.28;;;21.90;57.30;;;;;;4989233;28;20486;-71
2024/04/06 09:42:09;;;;;;;7.07;3.33;;;22.10;57.00;;;;;;4993356;28;20041;-74
2024/04/06 09:44:36;;;;;;;9.77;3.08;;;22.30;56.70;;;;;;5014389;28;20395;-70
2024/04/06 09:47:02;;;;;;;6.47;3.83;;;22.30;56.40;;;;;;5028758;28;20080;-73
2024/04/06 09:49:30;;;;;;;6.82;3.45;;;22.80;56.60;;;;;;5012629;28;20050;-69
2024/04/06 09:51:58;;;;;;;5.78;3.45;;;22.80;54.70;;;;;;5014414;28;20045;-72
2024/04/06 09:54:24;;;;;;;5.63;2.90;;;23.20;56.20;;;;;;5014013;28;20041;-73
2024/04/06 09:56:50;;;;;;;10.40;3.47;;;23.10;54.40;;;;;;5030658;28;20401;-71
2024/04/06 09:59:27;;;;;;;7.43;3.40;;;22.90;54.20;;;;;;5013372;28;20042;-72
2024/04/06 10:01:54;;;;;;;5.22;3.17;;;22.60;54.30;;;;;;4997606;28;20392;-70
2024/04/06 10:04:24;;;;;;;8.75;3.00;;;22.50;54.50;;;;;;5012300;28;20500;-69
2024/04/06 10:06:54;;;;;;;6.00;3.38;;;22.50;53.40;;;;;;5013738;28;20037;-72
2024/04/06 10:09:21;;;;;;;6.45;3.47;;;22.60;54.10;;;;;;5029711;28;20044;-72
2024/04/06 10:11:56;;;;;;;8.18;4.70;;;22.90;55.50;;;;;;5030435;28;20037;-72
2024/04/06 10:14:22;;;;;;;10.48;6.03;;;22.70;55.50;;;;;;5004341;28;20041;-70
2024/04/06 10:16:50;;;;;;;31.08;23.15;;;22.60;55.10;;;;;;5012975;28;20075;-71
2024/04/06 10:19:17;;;;;;;72.97;51.65;;;22.90;56.00;;;;;;5029729;28;20056;-70
2024/04/06 10:21:46;;;;;;;30.55;20.33;;;23.20;55.50;;;;;;4991747;28;20098;-72
2024/04/06 10:24:16;;;;;;;51.97;35.55;;;23.40;55.70;;;;;;5006873;28;20045;-70
2024/04/06 10:26:52;;;;;;;129.48;85.95;;;23.40;54.30;;;;;;5013495;28;20044;-71
2024/04/06 10:29:20;;;;;;;35.17;26.45;;;23.10;54.30;;;;;;5012990;28;20056;-70
2024/04/06 10:31:46;;;;;;;10.50;8.07;;;23.00;54.70;;;;;;5010689;28;20113;-72
2024/04/06 10:34:16;;;;;;;8.93;4.35;;;22.90;55.10;;;;;;4994821;28;20073;-71
2024/04/06 10:36:46;;;;;;;9.10;3.30;;;23.10;54.40;;;;;;5013504;28;20033;-71
2024/04/06 10:39:14;;;;;;;7.63;4.10;;;23.20;52.00;;;;;;5014085;28;20434;-70
2024/04/06 10:41:44;;;;;;;10.25;3.90;;;23.40;52.80;;;;;;4996604;28;20500;-69
2024/04/06 10:44:11;;;;;;;6.55;3.53;;;23.60;53.90;;;;;;5013253;28;20037;-72
2024/04/06 10:46:38;;;;;;;7.22;3.10;;;23.80;53.50;;;;;;5029750;28;20034;-71
2024/04/06 10:49:12;;;;;;;7.75;4.20;;;24.10;52.10;;;;;;5012962;28;20056;-71
2024/04/06 10:51:40;;;;;;;27.83;19.38;;;23.80;51.70;;;;;;5009246;28;20129;-71
2024/04/06 10:54:07;;;;;;;16.42;11.95;;;23.90;52.50;;;;;;5012887;28;20099;-71
2024/04/06 10:56:35;;;;;;;41.72;30.55;;;23.90;52.30;;;;;;5029045;28;20048;-70
2024/04/06 10:59:03;;;;;;;27.45;16.02;;;24.10;53.00;;;;;;4991905;28;20045;-71
2024/04/06 11:01:34;;;;;;;40.08;26.15;;;24.40;53.10;;;;;;5009043;28;20064;-72
2024/04/06 11:04:04;;;;;;;7.63;4.97;;;24.50;51.90;;;;;;5025401;28;20092;-71
2024/04/06 11:06:30;;;;;;;10.67;4.00;;;24.70;51.60;;;;;;5013684;28;20026;-73
2024/04/06 11:09:01;;;;;;;8.50;4.10;;;25.00;51.50;;;;;;5012927;28;20309;-72
2024/04/06 11:11:31;;;;;;;8.10;3.40;;;24.90;50.80;;;;;;4997183;28;20037;-70
2024/04/06 11:13:57;;;;;;;5.90;2.97;;;25.00;50.80;;;;;;5012563;28;20057;-73
2024/04/06 11:16:27;;;;;;;9.77;3.20;;;24.90;49.30;;;;;;5011853;28;20388;-72
2024/04/06 11:18:53;;;;;;;8.80;2.97;;;25.00;50.10;;;;;;4996420;28;20045;-74
2024/04/06 11:21:19;;;;;;;6.03;2.70;;;25.30;50.60;;;;;;5012601;28;21250;-74
2024/04/06 11:23:47;;;;;;;11.00;2.95;;;25.30;49.90;;;;;;4988317;28;20038;-75
2024/04/06 11:26:20;;;;;;;7.72;2.92;;;25.30;50.00;;;;;;4996992;28;20034;-72
2024/04/06 11:28:49;;;;;;;8.23;3.63;;;25.50;50.00;;;;;;5029699;28;20029;-73
2024/04/06 11:31:19;;;;;;;6.72;2.85;;;25.70;50.60;;;;;;5011149;28;20048;-72
2024/04/06 11:33:45;;;;;;;9.55;3.03;;;25.90;49.30;;;;;;5012748;28;20045;-72
2024/04/06 11:36:12;;;;;;;7.13;2.75;;;25.90;49.70;;;;;;4997049;28;20044;-71
2024/04/06 11:38:39;;;;;;;8.18;2.85;;;25.90;49.50;;;;;;5012855;28;20477;-71
2024/04/06 11:41:06;;;;;;;20.95;14.07;;;26.00;48.60;;;;;;5029785;28;20038;-69
2024/04/06 11:43:33;;;;;;;49.50;37.05;;;26.30;48.30;;;;;;5029589;28;20088;-72
2024/04/06 11:45:59;;;;;;;105.75;72.30;;;26.30;48.00;;;;;;5017664;28;20075;-72
2024/04/06 11:48:25;;;;;;;15.18;9.32;;;26.40;47.90;;;;;;5017046;28;20076;-71
2024/04/06 11:50:51;;;;;;;6.28;3.20;;;26.70;48.40;;;;;;5017165;28;20444;-71
2024/04/06 11:53:18;;;;;;;10.95;3.35;;;26.80;48.20;;;;;;5016436;28;20041;-70
2024/04/06 11:55:44;;;;;;;6.30;2.90;;;27.20;48.90;;;;;;5033774;28;20037;-70
2024/04/06 11:58:10;;;;;;;7.35;3.28;;;27.10;48.70;;;;;;5017210;28;20389;-70
2024/04/06 12:00:37;;;;;;;4.95;3.10;;;27.10;49.50;;;;;;5032717;28;20041;-70
2024/04/06 12:03:03;;;;;;;5.63;2.47;;;27.70;50.40;;;;;;5032981;28;20033;-70
2024/04/06 12:05:30;;;;;;;8.27;3.28;;;30.80;47.90;;;;;;5030181;28;20033;-71
2024/04/06 12:07:56;;;;;;;5.35;2.50;;;33.60;42.80;;;;;;5028719;28;20041;-71
2024/04/06 12:10:22;;;;;;;15.35;3.35;;;35.10;41.80;;;;;;5011079;28;20135;-70
2024/04/06 12:12:49;;;;;;;8.15;2.60;;;35.50;41.40;;;;;;5006462;28;20468;-72
2024/04/06 12:15:15;;;;;;;9.18;2.90;;;35.20;41.80;;;;;;5015587;28;20033;-70
2024/04/06 12:17:41;;;;;;;6.63;2.80;;;35.40;40.90;;;;;;5032353;28;20045;-71
2024/04/06 12:20:08;;;;;;;6.60;3.30;;;34.90;40.70;;;;;;5016958;28;20037;-70
2024/04/06 12:22:34;;;;;;;7.25;2.88;;;35.30;41.10;;;;;;5016529;28;20041;-68
2024/04/06 12:25:01;;;;;;;6.25;2.72;;;34.60;41.50;;;;;;5032100;28;20026;-71
2024/04/06 12:27:28;;;;;;;5.80;2.55;;;34.80;40.50;;;;;;5015763;28;20416;-74
2024/04/06 12:29:54;;;;;;;4.95;2.35;;;34.80;40.90;;;;;;5016470;28;20473;-76
2024/04/06 12:32:20;;;;;;;4.70;2.45;;;34.30;41.10;;;;;;4980543;28;20034;-77
2024/04/06 12:34:47;;;;;;;5.47;2.10;;;35.10;40.90;;;;;;5013226;28;20046;-74
2024/04/06 12:37:14;;;;;;;4.93;2.13;;;35.80;40.40;;;;;;5032495;28;20041;-70
2024/04/06 12:39:40;;;;;;;5.68;2.00;;;35.50;41.00;;;;;;5016068;28;20045;-74